KDEN/DEN METAR and TAF weather

Enter ICAO airport designator
Station Type Date Time Source
KDEN METAR 2019/10/16 18:53 UTC NOAA

KDEN 161853Z 29006KT 10SM FEW150 BKN220 25/M09 A3013 RMK AO2 SLP148 T02501094


Station Type Date Time Source
KDEN Decoded METAR 2019/10/16 18:53 UTC NOAA

DENVER INTERNATIONAL AIRPORT, CO, United States (KDEN) 39-52N 104-40W 1640M
Oct 16, 2019 - 02:53 PM EDT / 2019.10.16 1853 UTC
Wind: from the WNW (290 degrees) at 7 MPH (6 KT):0
Visibility: 10 mile(s):0
Sky conditions: mostly cloudy
Temperature: 77.0 F (25.0 C)
Dew Point: 15.1 F (-9.4 C)
Relative Humidity: 9%
Pressure (altimeter): 30.13 in. Hg (1020 hPa)
ob: KDEN 161853Z 29006KT 10SM FEW150 BKN220 25/M09 A3013 RMK AO2 SLP148 T02501094
cycle: 19

Station Type Date Time Source
KDEN TAF 2019/10/16 18:39 UTC NOAA

TAF KDEN 161736Z 1618/1724 VRB05KT P6SM FEW150 BKN220
FM162000 09007KT P6SM FEW150 BKN220
FM170100 15007KT P6SM SCT220
FM170400 20010KT P6SM SCT220
FM171300 24007KT P6SM SCT200
FM171800 08008KT P6SM BKN200

Example: see airport list